LJMB/MBX METAR and TAF weather

Enter ICAO airport designator
Station Type Date Time Source
LJMB METAR 2021/05/14 23:00 UTC NOAA

LJMB 142300Z AUTO 34005KT 9999 SCT036/// BKN093/// 12/10 Q1010


Station Type Date Time Source
LJMB Decoded METAR 2021/05/14 23:00 UTC NOAA

Maribor / Slivnica, Slovenia (LJMB) 46-29N 015-41E 265M
May 14, 2021 - 07:00 PM EDT / 2021.05.14 2300 UTC
Wind: from the NNW (340 degrees) at 6 MPH (5 KT):0
Visibility: greater than 7 mile(s):0
Sky conditions: mostly cloudy
Temperature: 53 F (12 C)
Dew Point: 50 F (10 C)
Relative Humidity: 87%
Pressure (altimeter): 29.83 in. Hg (1010 hPa)
ob: LJMB 142300Z AUTO 34005KT 9999 SCT036/// BKN093/// 12/10 Q1010
cycle: 23

Station Type Date Time Source
LJMB TAF 2021/05/14 18:05 UTC NOAA

TAF LJMB 141700Z 1418/1518 VRB02KT 9999 FEW040
TEMPO 1418/1424 SHRA SCT030TCU BKN050 PROB30
TEMPO 1418/1420 18012KT 4000 TSRA SCT030CB BKN040
TEMPO 1509/1517 -SHRA SCT030TCU BKN050

Example: see airport list